createdAt,value
2019-03-15T00:03:30.740Z,2.77
2019-03-15T00:09:26.174Z,3.87
2019-03-15T00:15:24.196Z,2.40
2019-03-15T00:21:21.908Z,2.10
2019-03-15T00:27:19.434Z,1.77
2019-03-15T00:33:17.206Z,1.97
2019-03-15T00:38:20.237Z,2.90
2019-03-15T00:44:25.442Z,1.73
2019-03-15T00:50:23.306Z,1.50
2019-03-15T00:56:21.300Z,2.00
2019-03-15T01:02:19.035Z,1.90
2019-03-15T01:08:16.874Z,1.60
2019-03-15T01:14:14.868Z,2.00
2019-03-15T01:20:12.859Z,2.33
2019-03-15T01:26:10.859Z,2.20
2019-03-15T01:32:09.457Z,1.83
2019-03-15T01:37:13.075Z,2.27
2019-03-15T01:43:11.127Z,2.07
2019-03-15T01:49:09.880Z,2.10
2019-03-15T01:55:08.386Z,2.20
2019-03-15T02:01:06.888Z,2.23
2019-03-15T02:07:04.883Z,2.50
2019-03-15T02:12:47.930Z,2.30
2019-03-15T02:18:45.915Z,2.10
2019-03-15T02:24:44.118Z,2.57
2019-03-15T02:30:42.008Z,2.50
2019-03-15T02:36:40.253Z,2.47
2019-03-15T02:41:44.381Z,1.97
2019-03-15T02:47:42.529Z,2.00
2019-03-15T02:53:40.877Z,3.00
2019-03-15T02:59:38.929Z,1.77
2019-03-15T03:05:37.231Z,1.87
2019-03-15T03:11:35.277Z,1.47
2019-03-15T03:17:32.911Z,1.70
2019-03-15T03:23:30.869Z,1.73
2019-03-15T03:29:29.264Z,1.77
2019-03-15T03:35:26.961Z,1.80
2019-03-15T03:40:30.694Z,2.07
2019-03-15T03:46:28.902Z,1.97
2019-03-15T03:52:08.583Z,1.87
2019-03-15T03:58:06.771Z,1.20
2019-03-15T04:04:05.066Z,1.70
2019-03-15T04:10:05.449Z,1.50
2019-03-15T04:16:04.022Z,1.80
2019-03-15T04:22:02.117Z,1.87
2019-03-15T04:28:00.213Z,2.00
2019-03-15T04:33:57.771Z,1.90
2019-03-15T04:39:01.667Z,2.63
2019-03-15T04:45:00.167Z,1.90
2019-03-15T04:50:58.326Z,1.57
2019-03-15T04:56:56.231Z,2.53
2019-03-15T05:02:54.189Z,3.63
2019-03-15T05:08:52.080Z,3.50
2019-03-15T05:13:58.638Z,4.70
2019-03-15T05:19:55.372Z,4.40
2019-03-15T05:25:53.017Z,4.80
2019-03-15T05:31:51.111Z,4.70
2019-03-15T05:37:49.308Z,3.87
2019-03-15T05:42:53.307Z,4.50
2019-03-15T05:48:52.044Z,4.20
2019-03-15T05:54:49.831Z,6.30
2019-03-15T06:00:47.504Z,5.60
2019-03-15T06:06:45.182Z,4.37
2019-03-15T06:12:42.856Z,5.00
2019-03-15T06:18:40.667Z,4.50
2019-03-15T06:24:38.241Z,4.40
2019-03-15T06:30:36.045Z,3.93
2019-03-15T06:36:33.954Z,4.90
2019-03-15T06:41:37.503Z,7.03
2019-03-15T06:47:35.931Z,5.67
2019-03-15T06:53:33.781Z,5.83
2019-03-15T06:59:31.657Z,6.13
2019-03-15T07:05:47.429Z,4.57
2019-03-15T07:11:45.219Z,5.63
2019-03-15T07:17:43.952Z,5.27
2019-03-15T07:23:41.742Z,6.30
2019-03-15T07:29:39.402Z,6.97
2019-03-15T07:35:37.198Z,4.90
2019-03-15T07:40:41.048Z,5.23
2019-03-15T07:46:39.016Z,5.10
2019-03-15T07:52:37.091Z,5.40
2019-03-15T07:58:34.795Z,5.60
2019-03-15T08:04:32.432Z,5.47
2019-03-15T08:10:30.061Z,7.20
2019-03-15T08:15:39.552Z,6.67
2019-03-15T08:21:33.545Z,7.33
2019-03-15T08:27:31.305Z,8.73
2019-03-15T08:33:29.225Z,9.33
2019-03-15T08:39:26.995Z,9.33
2019-03-15T08:44:30.249Z,9.00
2019-03-15T08:50:28.061Z,9.97
2019-03-15T08:56:25.869Z,9.97
2019-03-15T09:02:23.761Z,8.97
2019-03-15T09:08:22.159Z,11.10
2019-03-15T09:14:19.895Z,10.80
2019-03-15T09:20:17.738Z,10.10
2019-03-15T09:26:15.164Z,10.00
2019-03-15T09:32:12.691Z,10.03
2019-03-15T09:38:10.744Z,10.90
2019-03-15T09:43:13.934Z,10.13
2019-03-15T09:49:11.583Z,8.10
2019-03-15T09:55:09.988Z,7.03
2019-03-15T10:01:08.234Z,5.90
2019-03-15T10:07:06.465Z,5.20
2019-03-15T10:13:06.259Z,4.90
2019-03-15T10:19:04.245Z,3.80
2019-03-15T10:25:01.987Z,4.40
2019-03-15T10:30:43.420Z,3.60
2019-03-15T10:36:41.140Z,3.47
2019-03-15T10:42:38.670Z,4.20
2019-03-15T10:47:42.640Z,3.90
2019-03-15T10:53:42.832Z,4.10
2019-03-15T10:59:40.573Z,4.17
2019-03-15T11:05:38.343Z,5.40
2019-03-15T11:11:19.057Z,6.00
2019-03-15T11:16:22.166Z,6.27
2019-03-15T11:22:20.304Z,6.70
2019-03-15T11:28:18.452Z,6.87
2019-03-15T11:34:16.491Z,7.27
2019-03-15T11:40:14.606Z,7.00
2019-03-15T11:45:18.259Z,8.10
2019-03-15T11:51:15.748Z,9.27
2019-03-15T11:57:13.687Z,10.40
2019-03-15T12:03:12.089Z,10.10
2019-03-15T12:09:10.289Z,9.30
2019-03-15T12:15:08.376Z,9.10
2019-03-15T12:21:06.265Z,9.00
2019-03-15T12:27:04.261Z,8.93
2019-03-15T12:33:01.874Z,8.33
2019-03-15T12:38:59.609Z,7.80
2019-03-15T12:44:04.060Z,6.17
2019-03-15T12:50:02.028Z,6.70
2019-03-15T12:55:59.841Z,7.73
2019-03-15T13:01:57.590Z,6.70
2019-03-15T13:07:55.516Z,5.50
2019-03-15T13:13:53.614Z,5.50
2019-03-15T13:19:55.354Z,5.37
2019-03-15T13:25:50.831Z,4.57
2019-03-15T13:31:48.377Z,5.00
2019-03-15T13:37:46.003Z,4.53
2019-03-15T13:43:43.703Z,4.40
2019-03-15T13:48:47.437Z,3.80
2019-03-15T13:54:45.524Z,3.33
2019-03-15T14:00:43.147Z,3.00
2019-03-15T14:06:40.685Z,3.17
2019-03-15T14:12:38.331Z,2.43
2019-03-15T14:18:36.231Z,1.83
2019-03-15T14:24:34.070Z,1.90
2019-03-15T14:30:32.027Z,1.67
2019-03-15T14:36:29.809Z,2.03
2019-03-15T14:42:27.922Z,1.40
2019-03-15T14:47:31.656Z,2.13
2019-03-15T14:53:29.368Z,2.00
2019-03-15T14:59:27.396Z,2.27
2019-03-15T15:05:25.492Z,2.10
2019-03-15T15:11:25.787Z,2.00
2019-03-15T15:17:23.024Z,2.40
2019-03-15T15:23:20.728Z,2.10
2019-03-15T15:29:21.934Z,2.00
2019-03-15T15:35:18.126Z,2.23
2019-03-15T15:41:15.800Z,3.00
2019-03-15T15:46:20.270Z,2.50
2019-03-15T15:52:18.383Z,2.47
2019-03-15T15:58:18.198Z,2.10
2019-03-15T16:04:16.057Z,2.30
2019-03-15T16:10:17.170Z,2.60
2019-03-15T16:16:14.146Z,2.73
2019-03-15T16:22:11.876Z,2.20
2019-03-15T16:28:09.538Z,2.20
2019-03-15T16:34:07.223Z,2.53
2019-03-15T16:40:04.978Z,2.67
2019-03-15T16:45:26.678Z,2.60
2019-03-15T16:51:25.081Z,3.17
2019-03-15T16:57:23.181Z,2.77
2019-03-15T17:03:21.167Z,2.73
2019-03-15T17:09:19.364Z,3.30
2019-03-15T17:19:46.874Z,2.93
2019-03-15T17:24:49.573Z,3.30
2019-03-15T17:30:29.339Z,2.77
2019-03-15T17:35:32.751Z,2.80
2019-03-15T17:41:12.618Z,3.70
2019-03-15T17:46:15.519Z,3.30
2019-03-15T17:51:55.080Z,2.93
2019-03-15T17:56:57.776Z,3.20
2019-03-15T18:02:37.542Z,3.90
2019-03-15T18:07:40.341Z,3.53
2019-03-15T18:13:35.978Z,3.40
2019-03-15T18:18:40.346Z,3.43
2019-03-15T18:23:43.928Z,3.50
2019-03-15T18:29:26.503Z,3.23
2019-03-15T18:34:31.512Z,3.57
2019-03-15T18:40:13.709Z,3.10
2019-03-15T18:45:20.880Z,3.50
2019-03-15T18:50:28.191Z,4.20
2019-03-15T18:55:32.410Z,4.17
2019-03-15T19:01:13.771Z,3.00
2019-03-15T19:06:16.678Z,3.60
2019-03-15T19:11:56.645Z,3.57
2019-03-15T19:17:02.114Z,2.80
2019-03-15T19:22:41.621Z,3.40
2019-03-15T19:27:44.291Z,3.97
2019-03-15T19:33:23.927Z,3.60
2019-03-15T19:38:26.718Z,3.67
2019-03-15T19:44:06.895Z,3.53
2019-03-15T19:49:11.177Z,3.63
2019-03-15T19:55:00.251Z,3.70
2019-03-15T20:00:07.106Z,3.73
2019-03-15T20:05:36.734Z,3.50
2019-03-15T20:10:44.663Z,3.17
2019-03-15T20:15:50.631Z,3.20
2019-03-15T20:20:53.568Z,3.17
2019-03-15T20:26:33.190Z,4.67
2019-03-15T20:31:36.299Z,4.00
2019-03-15T20:37:16.078Z,3.47
2019-03-15T20:42:18.865Z,4.57
2019-03-15T20:47:21.763Z,4.00
2019-03-15T20:52:24.561Z,3.87
2019-03-15T20:58:04.425Z,4.10
2019-03-15T21:03:07.027Z,3.77
2019-03-15T21:08:48.625Z,4.03
2019-03-15T21:13:51.394Z,3.80
2019-03-15T21:18:53.915Z,3.90
2019-03-15T21:23:56.508Z,4.00
2019-03-15T21:29:35.763Z,4.00
2019-03-15T21:34:38.463Z,3.93
2019-03-15T21:40:20.171Z,5.17
2019-03-15T21:45:22.965Z,3.93
2019-03-15T21:50:25.665Z,3.60
2019-03-15T21:55:28.467Z,3.77
2019-03-15T22:00:31.160Z,4.43
2019-03-15T22:06:10.718Z,3.50
2019-03-15T22:11:20.974Z,4.10
2019-03-15T22:16:18.055Z,4.10
2019-03-15T22:21:20.754Z,4.03
2019-03-15T22:27:00.826Z,3.83
2019-03-15T22:32:16.120Z,3.03
2019-03-15T22:37:18.709Z,3.73
2019-03-15T22:42:21.536Z,4.13
2019-03-15T22:47:24.253Z,3.90
2019-03-15T22:52:28.029Z,3.30
2019-03-15T22:58:07.998Z,3.83
2019-03-15T23:03:11.054Z,3.27
2019-03-15T23:08:51.074Z,4.20
2019-03-15T23:13:54.180Z,5.10
2019-03-15T23:19:34.150Z,4.47
2019-03-15T23:24:36.642Z,4.37
2019-03-15T23:30:16.411Z,3.77
2019-03-15T23:35:20.229Z,3.90
2019-03-15T23:41:00.402Z,4.60
2019-03-15T23:46:03.100Z,3.67
2019-03-15T23:51:05.794Z,4.60
2019-03-15T23:56:08.594Z,5.07
